createdAt,value
2022-08-14T00:00:08.774Z,31.78
2022-08-14T00:00:33.129Z,31.79
2022-08-14T00:00:58.209Z,31.79
2022-08-14T00:01:24.161Z,31.80
2022-08-14T00:01:54.478Z,31.76
2022-08-14T00:02:17.499Z,31.77
2022-08-14T00:02:40.219Z,31.79
2022-08-14T00:03:01.906Z,31.78
2022-08-14T00:03:29.259Z,31.78
2022-08-14T00:03:53.409Z,31.83
2022-08-14T00:04:34.208Z,31.75
2022-08-14T00:04:57.892Z,31.84
2022-08-14T00:05:23.442Z,31.82
2022-08-14T00:05:45.162Z,31.85
2022-08-14T00:06:25.724Z,31.85
2022-08-14T00:06:50.467Z,31.84
2022-08-14T00:07:13.803Z,31.83
2022-08-14T00:07:41.992Z,31.84
2022-08-14T00:08:04.410Z,31.86
2022-08-14T00:08:45.052Z,31.84
2022-08-14T00:09:08.098Z,31.83
2022-08-14T00:09:33.129Z,31.82
2022-08-14T00:10:01.674Z,31.83
2022-08-14T00:10:52.945Z,31.80
2022-08-14T00:11:15.036Z,31.80
2022-08-14T00:11:38.732Z,31.79
2022-08-14T00:12:23.854Z,31.80
2022-08-14T00:12:56.225Z,31.75
2022-08-14T00:13:21.014Z,31.67
2022-08-14T00:13:52.619Z,31.72
2022-08-14T00:14:17.210Z,31.76
2022-08-14T00:14:39.186Z,31.75
2022-08-14T00:15:03.139Z,31.71
2022-08-14T00:15:29.922Z,31.73
2022-08-14T00:16:00.328Z,31.72
2022-08-14T00:16:41.591Z,31.72
2022-08-14T00:17:05.597Z,31.71
2022-08-14T00:17:27.323Z,31.69
2022-08-14T00:17:53.636Z,31.69
2022-08-14T00:18:30.756Z,31.64
2022-08-14T00:19:18.630Z,31.66
2022-08-14T00:19:43.149Z,31.69
2022-08-14T00:20:10.295Z,31.67
2022-08-14T00:20:35.958Z,31.68
2022-08-14T00:21:03.477Z,31.67
2022-08-14T00:21:30.942Z,31.68
2022-08-14T00:21:52.934Z,31.68
2022-08-14T00:22:22.083Z,31.68
2022-08-14T00:23:11.835Z,31.67
2022-08-14T00:23:34.449Z,31.67
2022-08-14T00:23:56.882Z,31.66
2022-08-14T00:24:29.007Z,31.63
2022-08-14T00:24:52.733Z,31.62
2022-08-14T00:25:14.471Z,31.62
2022-08-14T00:25:42.074Z,31.62
2022-08-14T00:26:06.064Z,31.64
2022-08-14T00:26:28.594Z,31.64
2022-08-14T00:26:52.643Z,31.63
2022-08-14T00:27:16.619Z,31.63
2022-08-14T00:27:39.610Z,31.64
2022-08-14T00:28:02.813Z,31.63
2022-08-14T00:28:54.079Z,31.64
2022-08-14T00:29:18.548Z,31.61
2022-08-14T00:29:42.991Z,31.62
2022-08-14T00:30:07.439Z,31.63
2022-08-14T00:30:29.414Z,31.59
2022-08-14T00:30:52.053Z,31.60
2022-08-14T00:31:14.846Z,31.59
2022-08-14T00:31:44.277Z,31.57
2022-08-14T00:32:52.057Z,31.59
2022-08-14T00:33:01.882Z,31.56
2022-08-14T00:33:52.560Z,31.52
2022-08-14T00:34:36.990Z,31.50
2022-08-14T00:35:01.137Z,31.55
2022-08-14T00:35:22.822Z,31.54
2022-08-14T00:36:36.197Z,31.52
2022-08-14T00:36:49.512Z,31.50
2022-08-14T00:37:11.593Z,31.51
2022-08-14T00:37:35.793Z,31.50
2022-08-14T00:37:58.393Z,31.50
2022-08-14T00:38:21.792Z,31.52
2022-08-14T00:38:45.890Z,31.49
2022-08-14T00:39:09.852Z,31.48
2022-08-14T00:39:31.668Z,31.49
2022-08-14T00:39:53.494Z,31.50
2022-08-14T00:40:27.540Z,31.49
2022-08-14T00:40:55.440Z,31.47
2022-08-14T00:41:20.076Z,31.45
2022-08-14T00:41:42.512Z,31.44
2022-08-14T00:42:06.367Z,31.45
2022-08-14T00:43:11.724Z,31.44
2022-08-14T00:43:11.956Z,31.43
2022-08-14T00:43:34.380Z,31.41
2022-08-14T00:43:58.429Z,31.41
2022-08-14T00:44:32.268Z,31.42
2022-08-14T00:44:56.074Z,31.43
2022-08-14T00:45:18.606Z,31.41
2022-08-14T00:45:43.175Z,31.37
2022-08-14T00:46:32.622Z,31.42
2022-08-14T00:46:58.821Z,31.38
2022-08-14T00:47:24.622Z,31.42
2022-08-14T00:47:49.098Z,31.42
2022-08-14T00:48:12.064Z,31.38
2022-08-14T00:48:36.744Z,31.44
2022-08-14T00:49:00.781Z,31.43
2022-08-14T00:49:24.178Z,31.44
2022-08-14T00:49:47.043Z,31.45
2022-08-14T00:50:17.933Z,31.45
2022-08-14T00:50:39.810Z,31.45
2022-08-14T00:51:03.407Z,31.43
2022-08-14T00:51:25.672Z,31.43
2022-08-14T00:52:00.898Z,31.42
2022-08-14T00:52:23.389Z,31.34
2022-08-14T00:52:46.407Z,31.38
2022-08-14T00:53:13.132Z,31.39
2022-08-14T00:53:37.091Z,31.38
2022-08-14T00:54:00.669Z,31.38
2022-08-14T00:54:22.397Z,31.36
2022-08-14T00:54:45.632Z,31.38
2022-08-14T00:55:10.000Z,31.38
2022-08-14T00:55:36.824Z,31.35
2022-08-14T00:56:00.722Z,31.37
2022-08-14T00:56:31.390Z,31.39
2022-08-14T00:56:56.039Z,31.40
2022-08-14T00:57:18.761Z,31.42
2022-08-14T00:57:41.320Z,31.39
2022-08-14T00:58:27.827Z,31.42
2022-08-14T00:58:56.861Z,31.42
2022-08-14T00:59:23.215Z,31.39
2022-08-14T00:59:46.372Z,31.39
2022-08-14T01:00:34.233Z,31.37
2022-08-14T01:00:57.904Z,31.38
2022-08-14T01:01:19.787Z,31.37
2022-08-14T01:01:41.809Z,31.35
2022-08-14T01:02:05.767Z,31.32
2022-08-14T01:02:32.381Z,31.33
2022-08-14T01:02:54.161Z,31.36
2022-08-14T01:03:18.066Z,31.34
2022-08-14T01:03:42.401Z,31.35
2022-08-14T01:04:06.091Z,31.35
2022-08-14T01:04:37.780Z,31.35
2022-08-14T01:05:23.469Z,31.37
2022-08-14T01:05:51.783Z,31.34
2022-08-14T01:06:16.858Z,31.29
2022-08-14T01:06:40.953Z,31.34
2022-08-14T01:07:07.418Z,31.33
2022-08-14T01:07:29.834Z,31.34
2022-08-14T01:08:50.625Z,31.30
2022-08-14T01:08:59.196Z,31.29
2022-08-14T01:09:22.781Z,31.28
2022-08-14T01:09:45.511Z,31.26
2022-08-14T01:10:07.846Z,31.24
2022-08-14T01:10:45.664Z,31.20
2022-08-14T01:11:08.318Z,31.23
2022-08-14T01:11:36.260Z,31.22
2022-08-14T01:12:02.634Z,31.21
2022-08-14T01:12:30.037Z,31.19
2022-08-14T01:12:52.087Z,31.22
2022-08-14T01:13:21.143Z,31.20
2022-08-14T01:13:44.555Z,31.17
2022-08-14T01:14:25.922Z,31.19
2022-08-14T01:14:52.977Z,31.20
2022-08-14T01:15:16.728Z,31.19
2022-08-14T01:15:57.770Z,31.16
2022-08-14T01:16:25.494Z,31.19
2022-08-14T01:16:53.008Z,31.14
2022-08-14T01:17:17.047Z,31.17
2022-08-14T01:18:02.498Z,31.16
2022-08-14T01:18:56.671Z,31.13
2022-08-14T01:19:43.316Z,31.14
2022-08-14T01:20:27.302Z,31.10
2022-08-14T01:21:04.033Z,31.10
2022-08-14T01:21:31.986Z,31.08
2022-08-14T01:21:56.590Z,31.07
2022-08-14T01:22:18.666Z,31.05
2022-08-14T01:22:40.801Z,31.06
2022-08-14T01:23:08.305Z,31.07
2022-08-14T01:23:41.708Z,31.06
2022-08-14T01:24:09.897Z,31.07
2022-08-14T01:24:34.551Z,31.07
2022-08-14T01:24:57.900Z,31.10
2022-08-14T01:25:20.341Z,31.11
2022-08-14T01:25:44.202Z,31.09
2022-08-14T01:26:11.703Z,31.10
2022-08-14T01:26:38.665Z,31.10
2022-08-14T01:27:02.069Z,31.07
2022-08-14T01:27:24.670Z,31.07
2022-08-14T01:27:56.843Z,31.10
2022-08-14T01:28:46.408Z,31.08
2022-08-14T01:29:06.851Z,31.04
2022-08-14T01:30:01.292Z,31.07
2022-08-14T01:30:26.375Z,31.05
2022-08-14T01:30:49.886Z,31.07
2022-08-14T01:31:15.582Z,31.05
2022-08-14T01:31:41.619Z,31.07
2022-08-14T01:32:04.527Z,31.08
2022-08-14T01:32:37.716Z,31.11
2022-08-14T01:33:06.707Z,31.10
2022-08-14T01:33:30.370Z,31.04
2022-08-14T01:33:59.710Z,31.06
2022-08-14T01:35:18.200Z,31.09
2022-08-14T01:36:03.830Z,31.10
2022-08-14T01:36:07.461Z,30.99
2022-08-14T01:36:47.222Z,31.11
2022-08-14T01:37:10.763Z,31.10
2022-08-14T01:37:32.642Z,31.10
2022-08-14T01:37:58.453Z,31.07
2022-08-14T01:38:20.246Z,31.07
2022-08-14T01:38:48.875Z,31.11
2022-08-14T01:39:13.559Z,31.11
2022-08-14T01:39:37.865Z,31.11
2022-08-14T01:40:01.408Z,31.09
2022-08-14T01:40:25.400Z,31.11
2022-08-14T01:40:55.572Z,31.06
2022-08-14T01:41:23.088Z,31.05
2022-08-14T01:41:56.310Z,31.04
2022-08-14T01:42:31.523Z,31.04
2022-08-14T01:42:54.169Z,31.01
2022-08-14T01:43:18.891Z,30.93
2022-08-14T01:43:56.431Z,30.96
2022-08-14T01:44:33.314Z,30.99
2022-08-14T01:44:57.492Z,30.99
2022-08-14T01:45:25.544Z,30.96
2022-08-14T01:46:05.723Z,30.99
2022-08-14T01:46:33.437Z,31.00
2022-08-14T01:47:01.180Z,30.99
2022-08-14T01:47:23.682Z,30.99
2022-08-14T01:47:45.384Z,30.99
2022-08-14T01:48:07.408Z,30.99
2022-08-14T01:48:37.004Z,31.01
2022-08-14T01:48:59.844Z,31.00
2022-08-14T01:49:22.100Z,31.03
2022-08-14T01:49:46.570Z,31.05
2022-08-14T01:50:26.557Z,30.99
2022-08-14T01:50:48.387Z,30.97
2022-08-14T01:51:18.802Z,31.00
2022-08-14T01:51:44.394Z,30.95
2022-08-14T01:52:13.381Z,31.03
2022-08-14T01:52:58.429Z,31.02
2022-08-14T01:53:21.988Z,30.99
2022-08-14T01:53:54.719Z,31.02
2022-08-14T01:54:23.536Z,31.02
2022-08-14T01:54:59.615Z,30.99
2022-08-14T01:55:23.168Z,30.96
2022-08-14T01:55:45.555Z,31.00
2022-08-14T01:56:12.163Z,30.98
2022-08-14T01:56:44.466Z,31.00
2022-08-14T01:57:11.578Z,31.01
2022-08-14T01:58:00.219Z,30.99
2022-08-14T01:58:20.193Z,30.97
2022-08-14T01:58:57.493Z,30.92
2022-08-14T01:59:21.833Z,30.93
2022-08-14T01:59:44.629Z,30.94
2022-08-14T02:00:09.257Z,30.94
2022-08-14T02:00:36.329Z,30.95
2022-08-14T02:00:58.508Z,30.92
2022-08-14T02:01:20.751Z,30.95
2022-08-14T02:01:58.096Z,30.93
2022-08-14T02:02:20.723Z,30.93
2022-08-14T02:02:43.040Z,30.92
2022-08-14T02:03:08.343Z,30.93
2022-08-14T02:03:35.611Z,30.93
2022-08-14T02:04:03.636Z,30.93
2022-08-14T02:04:54.518Z,30.93
2022-08-14T02:05:13.316Z,30.96
2022-08-14T02:05:38.724Z,30.94
2022-08-14T02:06:32.696Z,30.91
2022-08-14T02:06:44.550Z,30.91
2022-08-14T02:07:15.693Z,30.91
2022-08-14T02:07:53.265Z,30.89
2022-08-14T02:08:22.506Z,30.92
2022-08-14T02:08:58.054Z,30.91
2022-08-14T02:09:22.612Z,30.86
2022-08-14T02:09:44.457Z,30.88
2022-08-14T02:10:17.970Z,30.89
2022-08-14T02:10:47.257Z,30.87
2022-08-14T02:11:18.667Z,30.86
2022-08-14T02:11:40.430Z,30.88
2022-08-14T02:12:05.682Z,30.85
2022-08-14T02:12:30.956Z,30.87
2022-08-14T02:12:56.904Z,30.84
2022-08-14T02:13:20.824Z,30.85
2022-08-14T02:13:46.471Z,30.85
2022-08-14T02:14:14.645Z,30.83
2022-08-14T02:15:00.660Z,30.79
2022-08-14T02:15:23.694Z,30.74
2022-08-14T02:15:48.422Z,30.73
2022-08-14T02:16:21.719Z,30.74
2022-08-14T02:16:48.077Z,30.76
2022-08-14T02:17:13.634Z,30.75
2022-08-14T02:17:37.019Z,30.71
2022-08-14T02:18:01.503Z,30.75
2022-08-14T02:18:24.289Z,30.73
2022-08-14T02:18:49.108Z,30.63
2022-08-14T02:19:15.076Z,30.69
2022-08-14T02:19:36.952Z,30.59
2022-08-14T02:19:58.819Z,30.61
2022-08-14T02:20:23.786Z,30.64
2022-08-14T02:20:47.753Z,30.60
2022-08-14T02:21:12.425Z,30.64
2022-08-14T02:21:43.245Z,30.64
2022-08-14T02:22:10.352Z,30.63
2022-08-14T02:22:33.153Z,30.65
2022-08-14T02:22:57.265Z,30.61
2022-08-14T02:23:30.492Z,30.48
2022-08-14T02:23:55.400Z,30.61
2022-08-14T02:24:39.697Z,30.51
2022-08-14T02:25:03.333Z,30.40
2022-08-14T02:25:29.901Z,30.52
2022-08-14T02:25:54.612Z,30.52
2022-08-14T02:26:29.021Z,30.51
2022-08-14T02:28:20.227Z,30.55
2022-08-14T02:28:25.075Z,30.52
2022-08-14T02:28:56.106Z,30.55
2022-08-14T02:29:05.115Z,30.54
2022-08-14T02:30:00.502Z,30.56
2022-08-14T02:30:15.120Z,30.53
2022-08-14T02:30:39.204Z,30.51
2022-08-14T02:31:02.139Z,30.54
2022-08-14T02:31:28.596Z,30.52
2022-08-14T02:32:04.930Z,30.53
2022-08-14T02:32:30.254Z,30.56
2022-08-14T02:32:58.941Z,30.54
2022-08-14T02:33:22.401Z,30.47
2022-08-14T02:33:44.717Z,30.46
2022-08-14T02:34:20.012Z,30.47
2022-08-14T02:34:45.444Z,30.50
2022-08-14T02:35:18.584Z,30.51
2022-08-14T02:35:41.497Z,30.46
2022-08-14T02:37:02.552Z,30.51
2022-08-14T02:37:04.221Z,30.41
2022-08-14T02:37:37.411Z,30.49
2022-08-14T02:38:11.674Z,30.44
2022-08-14T02:38:49.824Z,30.47
2022-08-14T02:39:13.782Z,30.42
2022-08-14T02:39:38.523Z,30.47
2022-08-14T02:40:00.590Z,30.49
2022-08-14T02:40:32.124Z,30.47
2022-08-14T02:40:56.666Z,30.49
2022-08-14T02:41:18.397Z,30.41
2022-08-14T02:41:52.437Z,30.49
2022-08-14T02:42:23.456Z,30.51
2022-08-14T02:42:59.303Z,30.50
2022-08-14T02:43:22.620Z,30.45
2022-08-14T02:43:48.161Z,30.46
2022-08-14T02:44:12.816Z,30.44
2022-08-14T02:44:39.770Z,30.47
2022-08-14T02:45:01.561Z,30.43
2022-08-14T02:45:24.042Z,30.43
2022-08-14T02:45:47.703Z,30.43
2022-08-14T02:46:11.339Z,30.45
2022-08-14T02:46:34.272Z,30.37
2022-08-14T02:47:02.920Z,30.43
2022-08-14T02:47:30.080Z,30.43
2022-08-14T02:47:53.739Z,30.40
2022-08-14T02:49:04.869Z,30.39
2022-08-14T02:49:06.213Z,30.34
2022-08-14T02:49:34.051Z,30.33
2022-08-14T02:49:57.045Z,30.32
2022-08-14T02:50:19.963Z,30.34
2022-08-14T02:50:51.521Z,30.34
2022-08-14T02:51:15.581Z,30.32
2022-08-14T02:51:38.711Z,30.32
2022-08-14T02:52:01.360Z,30.32
2022-08-14T02:52:57.460Z,30.35
2022-08-14T02:53:12.004Z,30.34
2022-08-14T02:53:39.790Z,30.35
2022-08-14T02:54:07.095Z,30.37
2022-08-14T02:54:28.801Z,30.30
2022-08-14T02:54:52.172Z,30.30
2022-08-14T02:55:15.602Z,30.31
2022-08-14T02:55:44.707Z,30.30
2022-08-14T02:56:29.701Z,30.29
2022-08-14T02:57:16.417Z,30.30
2022-08-14T02:57:39.806Z,30.30
2022-08-14T02:58:05.988Z,30.30
2022-08-14T02:58:30.312Z,30.27
2022-08-14T02:58:56.275Z,30.30
2022-08-14T02:59:24.738Z,30.28
2022-08-14T02:59:51.875Z,30.31
2022-08-14T03:00:18.903Z,30.29
2022-08-14T03:00:40.724Z,30.30
2022-08-14T03:01:02.443Z,30.31
2022-08-14T03:01:26.191Z,30.28
2022-08-14T03:01:54.818Z,30.30
2022-08-14T03:02:49.148Z,30.30
2022-08-14T03:02:59.439Z,30.26
2022-08-14T03:03:23.852Z,30.23
2022-08-14T03:03:49.680Z,30.26
2022-08-14T03:04:12.185Z,30.17
2022-08-14T03:04:34.569Z,30.24
2022-08-14T03:04:56.321Z,30.24
2022-08-14T03:05:20.414Z,30.22
2022-08-14T03:05:42.093Z,30.26
2022-08-14T03:06:04.976Z,30.26
2022-08-14T03:06:48.943Z,30.26
2022-08-14T03:07:10.420Z,30.23
2022-08-14T03:07:40.695Z,30.27
2022-08-14T03:08:09.081Z,30.21
2022-08-14T03:08:34.564Z,30.23
2022-08-14T03:08:56.393Z,30.21
2022-08-14T03:09:19.697Z,30.19
2022-08-14T03:10:25.348Z,30.17
2022-08-14T03:10:25.673Z,30.18
2022-08-14T03:10:50.314Z,30.14
2022-08-14T03:11:13.565Z,30.17
2022-08-14T03:11:36.128Z,30.18
2022-08-14T03:11:58.725Z,30.17
2022-08-14T03:12:32.402Z,30.18
2022-08-14T03:12:54.344Z,30.17
2022-08-14T03:13:21.135Z,30.16
2022-08-14T03:13:47.888Z,30.14
2022-08-14T03:14:11.888Z,30.13
2022-08-14T03:14:38.657Z,30.12
2022-08-14T03:15:03.561Z,30.08
2022-08-14T03:15:27.839Z,30.09
2022-08-14T03:15:55.639Z,30.06
2022-08-14T03:16:26.998Z,30.07
2022-08-14T03:16:50.985Z,30.03
2022-08-14T03:17:14.862Z,30.02
2022-08-14T03:17:41.165Z,30.03
2022-08-14T03:18:22.074Z,29.99
2022-08-14T03:19:00.242Z,30.02
2022-08-14T03:19:22.765Z,30.06
2022-08-14T03:19:44.654Z,30.07
2022-08-14T03:20:07.333Z,30.08
2022-08-14T03:20:33.969Z,30.08
2022-08-14T03:20:57.690Z,30.09
2022-08-14T03:21:20.613Z,30.02
2022-08-14T03:21:43.704Z,30.07
2022-08-14T03:22:05.480Z,30.06
2022-08-14T03:22:33.725Z,30.08
2022-08-14T03:22:59.341Z,30.09
2022-08-14T03:23:22.086Z,30.10
2022-08-14T03:23:48.166Z,30.12
2022-08-14T03:24:21.505Z,30.13
2022-08-14T03:24:45.535Z,30.11
2022-08-14T03:25:08.165Z,30.09
2022-08-14T03:25:33.582Z,30.10
2022-08-14T03:25:56.283Z,30.10
2022-08-14T03:26:29.218Z,30.09
2022-08-14T03:26:57.614Z,30.10
2022-08-14T03:27:19.528Z,30.08
2022-08-14T03:27:47.992Z,30.07
2022-08-14T03:28:32.907Z,30.05
2022-08-14T03:28:56.537Z,30.05
2022-08-14T03:29:24.650Z,30.06
2022-08-14T03:29:48.417Z,30.03
2022-08-14T03:30:14.505Z,30.05
2022-08-14T03:30:40.021Z,30.02
2022-08-14T03:31:02.815Z,30.00
2022-08-14T03:31:26.071Z,30.02
2022-08-14T03:31:53.292Z,29.96
2022-08-14T03:32:14.959Z,29.88
2022-08-14T03:32:38.788Z,29.89
2022-08-14T03:33:03.535Z,29.90
2022-08-14T03:33:27.562Z,29.93
2022-08-14T03:33:51.739Z,29.91
2022-08-14T03:34:24.998Z,29.92
2022-08-14T03:34:58.683Z,29.90
2022-08-14T03:35:21.138Z,29.90
2022-08-14T03:35:59.742Z,29.89
2022-08-14T03:37:37.678Z,29.78
2022-08-14T03:37:51.458Z,29.88
2022-08-14T03:39:10.667Z,29.81
2022-08-14T03:39:13.671Z,29.76
2022-08-14T03:39:27.610Z,29.73
2022-08-14T03:39:49.568Z,29.74
2022-08-14T03:40:18.280Z,29.73
2022-08-14T03:40:41.341Z,29.73
2022-08-14T03:41:03.037Z,29.75
2022-08-14T03:41:28.169Z,29.74
2022-08-14T03:42:01.521Z,29.73
2022-08-14T03:42:25.097Z,29.71
2022-08-14T03:42:58.936Z,29.65
2022-08-14T03:43:21.762Z,29.65
2022-08-14T03:43:43.882Z,29.66
2022-08-14T03:45:20.262Z,29.55
2022-08-14T03:45:26.102Z,29.60
2022-08-14T03:45:34.801Z,29.51
2022-08-14T03:45:56.946Z,29.49
2022-08-14T03:46:51.906Z,29.48
2022-08-14T03:47:04.009Z,29.46
2022-08-14T03:47:46.050Z,29.42
2022-08-14T03:48:26.779Z,29.46
2022-08-14T03:48:54.436Z,29.43
2022-08-14T03:49:24.407Z,29.42
2022-08-14T03:49:51.974Z,29.41
2022-08-14T03:50:14.105Z,29.43
2022-08-14T03:50:47.462Z,29.36
2022-08-14T03:51:13.272Z,29.35
2022-08-14T03:51:38.143Z,29.40
2022-08-14T03:52:04.663Z,29.43
2022-08-14T03:52:55.472Z,29.44
2022-08-14T03:53:20.505Z,29.46
2022-08-14T03:53:46.346Z,29.49
2022-08-14T03:54:09.299Z,29.47
2022-08-14T03:54:37.783Z,29.45
2022-08-14T03:55:03.735Z,29.43
2022-08-14T03:55:25.524Z,29.50
2022-08-14T03:55:48.398Z,29.51
2022-08-14T03:56:18.030Z,29.53
2022-08-14T03:56:45.107Z,29.53
2022-08-14T03:57:11.971Z,29.57
2022-08-14T03:57:37.247Z,29.55
2022-08-14T03:58:00.460Z,29.54
2022-08-14T03:58:35.104Z,29.56
2022-08-14T03:59:03.009Z,29.60
2022-08-14T03:59:28.503Z,29.59
2022-08-14T03:59:50.489Z,29.62
2022-08-14T04:00:43.530Z,29.61
2022-08-14T04:00:56.488Z,29.60
2022-08-14T04:01:21.312Z,29.60
2022-08-14T04:01:45.819Z,29.60
2022-08-14T04:02:32.492Z,29.62
2022-08-14T04:02:56.121Z,29.65
2022-08-14T04:03:24.345Z,29.62
2022-08-14T04:03:46.992Z,29.63
2022-08-14T04:04:09.913Z,29.66
2022-08-14T04:04:33.624Z,29.64
2022-08-14T04:04:55.548Z,29.67
2022-08-14T04:05:38.017Z,29.67
2022-08-14T04:06:08.454Z,29.68
2022-08-14T04:06:32.689Z,29.69
2022-08-14T04:07:04.479Z,29.71
2022-08-14T04:07:28.235Z,29.68
2022-08-14T04:08:00.106Z,29.72
2022-08-14T04:08:34.892Z,29.69
2022-08-14T04:08:58.093Z,29.70
2022-08-14T04:09:19.849Z,29.71
2022-08-14T04:09:41.724Z,29.70
2022-08-14T04:10:04.067Z,29.69
2022-08-14T04:10:32.647Z,29.69
2022-08-14T04:10:56.311Z,29.69
2022-08-14T04:11:19.423Z,29.71
2022-08-14T04:11:42.059Z,29.70
2022-08-14T04:12:06.131Z,29.67
2022-08-14T04:12:29.300Z,29.65
2022-08-14T04:12:51.671Z,29.67
2022-08-14T04:13:18.035Z,29.67
2022-08-14T04:13:42.687Z,29.66
2022-08-14T04:14:05.405Z,29.62
2022-08-14T04:14:29.359Z,29.65
2022-08-14T04:14:52.382Z,29.61
2022-08-14T04:15:19.937Z,29.63
2022-08-14T04:15:56.633Z,29.63
2022-08-14T04:16:25.172Z,29.63
2022-08-14T04:16:53.299Z,29.64
2022-08-14T04:17:14.921Z,29.60
2022-08-14T04:17:38.548Z,29.65
2022-08-14T04:18:06.399Z,29.67
2022-08-14T04:18:30.470Z,29.68
2022-08-14T04:18:55.914Z,29.67
2022-08-14T04:19:23.969Z,29.68
2022-08-14T04:19:47.335Z,29.70
2022-08-14T04:20:10.205Z,29.69
2022-08-14T04:20:31.981Z,29.69
2022-08-14T04:20:55.895Z,29.67
2022-08-14T04:21:18.373Z,29.69
2022-08-14T04:22:01.835Z,29.70
2022-08-14T04:22:23.629Z,29.73
2022-08-14T04:22:45.923Z,29.73
2022-08-14T04:23:10.509Z,29.72
2022-08-14T04:23:42.624Z,29.68
2022-08-14T04:24:06.905Z,29.68
2022-08-14T04:24:29.093Z,29.67
2022-08-14T04:24:53.077Z,29.70
2022-08-14T04:25:14.753Z,29.71
2022-08-14T04:25:37.351Z,29.70
2022-08-14T04:26:00.262Z,29.72
2022-08-14T04:26:27.171Z,29.70
2022-08-14T04:27:00.393Z,29.67
2022-08-14T04:27:23.606Z,29.65
2022-08-14T04:27:48.674Z,29.65
2022-08-14T04:29:06.865Z,29.64
2022-08-14T04:29:15.243Z,29.59
2022-08-14T04:29:38.617Z,29.48
2022-08-14T04:30:00.467Z,29.49
2022-08-14T04:30:32.692Z,29.48
2022-08-14T04:30:59.574Z,29.46
2022-08-14T04:31:24.881Z,29.44
2022-08-14T04:32:58.999Z,29.45
2022-08-14T04:33:10.842Z,29.45
2022-08-14T04:33:33.169Z,29.42
2022-08-14T04:33:55.484Z,29.42
2022-08-14T04:34:20.742Z,29.44
2022-08-14T04:34:52.232Z,29.43
2022-08-14T04:35:14.287Z,29.40
2022-08-14T04:35:56.237Z,29.42
2022-08-14T04:36:18.683Z,29.34
2022-08-14T04:36:55.211Z,29.33
2022-08-14T04:37:39.312Z,29.26
2022-08-14T04:38:36.705Z,29.26
2022-08-14T04:39:20.286Z,29.26
2022-08-14T04:40:00.208Z,29.28
2022-08-14T04:40:43.534Z,29.31
2022-08-14T04:41:23.952Z,29.30
2022-08-14T04:42:13.965Z,29.32
2022-08-14T04:42:54.873Z,29.32
2022-08-14T04:43:39.229Z,29.34
2022-08-14T04:44:02.437Z,29.27
2022-08-14T04:44:26.867Z,29.27
2022-08-14T04:45:00.974Z,29.28
2022-08-14T04:45:24.564Z,29.28
2022-08-14T04:45:51.490Z,29.30
2022-08-14T04:46:57.476Z,29.29
2022-08-14T04:47:16.654Z,29.32
2022-08-14T04:47:56.794Z,29.33
2022-08-14T04:48:39.793Z,29.38
2022-08-14T04:49:03.593Z,29.35
2022-08-14T04:49:29.797Z,29.36
2022-08-14T04:49:56.886Z,29.37
2022-08-14T04:50:23.174Z,29.38
2022-08-14T04:51:03.405Z,29.36
2022-08-14T04:51:26.596Z,29.32
2022-08-14T04:51:55.763Z,29.37
2022-08-14T04:52:23.394Z,29.37
2022-08-14T04:52:49.325Z,29.34
2022-08-14T04:53:23.218Z,29.34
2022-08-14T04:53:49.470Z,29.37
2022-08-14T04:54:13.450Z,29.38
2022-08-14T04:54:38.938Z,29.39
2022-08-14T04:55:01.264Z,29.40
2022-08-14T04:55:24.089Z,29.41
2022-08-14T04:55:51.595Z,29.41
2022-08-14T04:56:30.695Z,29.40
2022-08-14T04:56:56.160Z,29.39
2022-08-14T04:57:17.983Z,29.37
2022-08-14T04:57:40.967Z,29.41
2022-08-14T04:58:04.109Z,29.38
2022-08-14T04:58:33.818Z,29.43
2022-08-14T04:59:10.244Z,29.40
2022-08-14T04:59:32.613Z,29.46
2022-08-14T04:59:55.277Z,29.49
2022-08-14T05:00:18.264Z,29.48
2022-08-14T05:00:40.070Z,29.51
2022-08-14T05:01:12.981Z,29.52
2022-08-14T05:01:45.278Z,29.57
2022-08-14T05:02:11.606Z,29.54
2022-08-14T05:02:34.612Z,29.55
2022-08-14T05:02:57.026Z,29.56
2022-08-14T05:03:20.872Z,29.55
2022-08-14T05:03:45.405Z,29.54
2022-08-14T05:04:08.192Z,29.56
2022-08-14T05:04:30.316Z,29.57
2022-08-14T05:04:58.535Z,29.57
2022-08-14T05:05:21.911Z,29.57
2022-08-14T05:05:45.156Z,29.56
2022-08-14T05:06:35.040Z,29.58
2022-08-14T05:06:55.563Z,29.59
2022-08-14T05:07:17.318Z,29.60
2022-08-14T05:07:54.055Z,29.63
2022-08-14T05:08:31.691Z,29.61
2022-08-14T05:09:05.754Z,29.60
2022-08-14T05:09:30.696Z,29.62
2022-08-14T05:09:53.383Z,29.61
2022-08-14T05:10:16.508Z,29.61
2022-08-14T05:10:46.136Z,29.64
2022-08-14T05:11:13.561Z,29.63
2022-08-14T05:11:36.596Z,29.62
2022-08-14T05:12:08.575Z,29.57
2022-08-14T05:13:10.758Z,29.60
2022-08-14T05:13:31.855Z,29.56
2022-08-14T05:14:17.063Z,29.52
2022-08-14T05:14:55.208Z,29.54
2022-08-14T05:15:17.444Z,29.55
2022-08-14T05:15:42.573Z,29.55
2022-08-14T05:16:07.558Z,29.54
2022-08-14T05:16:31.712Z,29.55
2022-08-14T05:16:53.574Z,29.54
2022-08-14T05:17:15.938Z,29.53
2022-08-14T05:17:44.303Z,29.54
2022-08-14T05:19:16.981Z,29.54
2022-08-14T05:19:17.714Z,29.57
2022-08-14T05:21:04.834Z,29.58
2022-08-14T05:21:54.426Z,29.57
2022-08-14T05:22:00.029Z,29.54
2022-08-14T05:22:01.178Z,29.58
2022-08-14T05:22:38.395Z,29.55
2022-08-14T05:23:02.082Z,29.57
2022-08-14T05:23:26.854Z,29.59
2022-08-14T05:23:50.128Z,29.59
2022-08-14T05:24:17.827Z,29.61
2022-08-14T05:24:42.103Z,29.63
2022-08-14T05:25:06.297Z,29.65
2022-08-14T05:25:34.338Z,29.67
2022-08-14T05:26:00.432Z,29.58
2022-08-14T05:26:22.345Z,29.66
2022-08-14T05:26:44.764Z,29.67
2022-08-14T05:27:09.449Z,29.60
2022-08-14T05:27:34.900Z,29.70
2022-08-14T05:28:00.429Z,29.70
2022-08-14T05:28:24.332Z,29.73
2022-08-14T05:28:46.330Z,29.73
2022-08-14T05:29:11.912Z,29.75
2022-08-14T05:29:35.205Z,29.71
2022-08-14T05:29:57.466Z,29.72
2022-08-14T05:30:19.664Z,29.75
2022-08-14T05:30:43.605Z,29.75
2022-08-14T05:31:07.876Z,29.72
2022-08-14T05:31:30.275Z,29.73
2022-08-14T05:32:06.324Z,29.76
2022-08-14T05:32:28.901Z,29.77
2022-08-14T05:32:50.588Z,29.78
2022-08-14T05:33:14.540Z,29.78
2022-08-14T05:33:37.660Z,29.79
2022-08-14T05:34:01.151Z,29.84
2022-08-14T05:34:23.792Z,29.86
2022-08-14T05:34:50.665Z,29.81
2022-08-14T05:35:13.309Z,29.86
2022-08-14T05:35:37.809Z,29.87
2022-08-14T05:36:07.526Z,29.90
2022-08-14T05:36:38.632Z,29.92
2022-08-14T05:37:03.951Z,29.92
2022-08-14T05:37:30.368Z,29.90
2022-08-14T05:37:52.050Z,29.89
2022-08-14T05:38:30.814Z,29.91
2022-08-14T05:38:53.939Z,29.90
2022-08-14T05:39:17.013Z,29.93
2022-08-14T05:39:39.556Z,29.93
2022-08-14T05:40:05.895Z,29.95
2022-08-14T05:40:28.142Z,29.96
2022-08-14T05:40:50.044Z,29.94
2022-08-14T05:41:13.959Z,29.95
2022-08-14T05:41:52.914Z,29.92
2022-08-14T05:42:26.633Z,29.93
2022-08-14T05:42:52.789Z,29.90
2022-08-14T05:43:16.022Z,29.93
2022-08-14T05:43:41.183Z,29.94
2022-08-14T05:44:05.022Z,29.84
2022-08-14T05:44:30.700Z,29.95
2022-08-14T05:44:55.362Z,29.95
2022-08-14T05:45:18.984Z,29.93
2022-08-14T05:45:42.161Z,29.89
2022-08-14T05:46:03.936Z,29.93
2022-08-14T05:46:27.515Z,29.92
2022-08-14T05:46:49.913Z,29.91
2022-08-14T05:47:11.639Z,29.90
2022-08-14T05:47:40.680Z,29.90
2022-08-14T05:48:03.930Z,29.93
2022-08-14T05:48:33.648Z,29.96
2022-08-14T05:48:59.109Z,29.94
2022-08-14T05:49:20.709Z,29.93
2022-08-14T05:49:42.388Z,29.95
2022-08-14T05:50:04.578Z,29.97
2022-08-14T05:50:29.158Z,29.88
2022-08-14T05:50:52.189Z,29.99
2022-08-14T05:51:15.335Z,29.99
2022-08-14T05:51:37.123Z,29.94
2022-08-14T05:52:01.781Z,29.98
2022-08-14T05:52:26.457Z,29.99
2022-08-14T05:53:01.220Z,29.99
2022-08-14T05:53:24.034Z,29.96
2022-08-14T05:54:01.496Z,29.94
2022-08-14T05:54:28.408Z,29.91
2022-08-14T05:54:58.127Z,29.90
2022-08-14T05:55:23.300Z,29.85
2022-08-14T05:55:45.081Z,29.93
2022-08-14T05:56:07.308Z,29.96
2022-08-14T05:56:29.237Z,29.95
2022-08-14T05:56:50.889Z,29.95
2022-08-14T05:57:14.872Z,29.96
2022-08-14T05:57:48.936Z,29.99
2022-08-14T05:58:10.668Z,29.92
2022-08-14T05:58:40.894Z,29.90
2022-08-14T05:59:03.341Z,29.88
2022-08-14T05:59:36.446Z,29.83
2022-08-14T05:59:59.701Z,29.89
2022-08-14T06:00:24.910Z,29.87
2022-08-14T06:00:51.751Z,29.91
2022-08-14T06:01:15.733Z,29.92
2022-08-14T06:01:37.433Z,29.93
2022-08-14T06:01:59.160Z,29.95